Time;durP1;ratioP1;P1;durP2;ratioP2;P2;SDS_P1;SDS_P2;PMS_P1;PMS_P2;Temp;Humidity;BMP_temperature;BMP_pressure;BME280_temperature;BME280_humidity;BME280_pressure;Samples;Min_cycle;Max_cycle;Signal;HPM_P1;HPM_P2
2022/04/03 00:00:12;;;;;;;;;;;1.50;93.10;;;;;;5103001;28;19935;-67
2022/04/03 00:02:38;;;;;;;;;;;1.40;93.00;;;;;;5102259;28;20175;-67
2022/04/03 00:05:04;;;;;;;;;;;1.40;92.90;;;;;;5103172;28;19915;-67
2022/04/03 00:07:30;;;;;;;;;;;1.40;92.90;;;;;;5103003;28;19908;-67
2022/04/03 00:09:56;;;;;;;;;;;1.40;92.60;;;;;;5102943;28;19908;-67
2022/04/03 00:12:23;;;;;;;;;;;1.30;92.80;;;;;;5102199;28;19999;-66
2022/04/03 00:14:49;;;;;;;;;;;1.30;92.90;;;;;;5102835;28;19912;-66
2022/04/03 00:17:15;;;;;;;;;;;1.20;93.00;;;;;;5102392;28;20254;-66
2022/04/03 00:19:41;;;;;;;;;;;1.20;93.00;;;;;;5102777;28;19927;-66
2022/04/03 00:22:06;;;;;;;;;;;1.20;92.80;;;;;;5101714;28;19908;-68
2022/04/03 00:24:32;;;;;;;;;;;1.10;92.70;;;;;;5102621;28;20150;-66
2022/04/03 00:26:57;;;;;;;;;;;1.10;92.80;;;;;;5102591;28;19923;-67
2022/04/03 00:29:23;;;;;;;;;;;1.10;93.00;;;;;;5117682;28;19907;-66
2022/04/03 00:31:49;;;;;;;;;;;1.00;93.10;;;;;;5122490;28;19945;-66
2022/04/03 00:34:15;;;;;;;;;;;1.00;92.90;;;;;;5104889;28;19908;-67
2022/04/03 00:36:41;;;;;;;;;;;0.90;93.00;;;;;;5123083;28;19908;-66
2022/04/03 00:39:06;;;;;;;;;;;0.90;93.10;;;;;;5122925;28;19908;-67
2022/04/03 00:41:32;;;;;;;;;;;0.90;93.30;;;;;;5122930;28;19962;-67
2022/04/03 00:43:58;;;;;;;;;;;0.80;93.40;;;;;;5122953;28;20367;-67
2022/04/03 00:46:24;;;;;;;;;;;0.80;93.60;;;;;;5104657;28;20199;-67
2022/04/03 00:48:50;;;;;;;;;;;0.80;93.70;;;;;;5087799;28;19918;-67
2022/04/03 00:51:17;;;;;;;;;;;0.70;93.90;;;;;;5100761;28;20157;-66
2022/04/03 00:53:43;;;;;;;;;;;0.70;94.10;;;;;;5102479;28;20222;-67
2022/04/03 00:56:09;;;;;;;;;;;0.70;94.30;;;;;;5102385;28;19908;-66
2022/04/03 00:58:38;;;;;;;;;;;0.60;94.40;;;;;;5102233;28;19908;-66
2022/04/03 01:01:04;;;;;;;;;;;0.60;94.30;;;;;;5101761;28;19975;-66
2022/04/03 01:03:30;;;;;;;;;;;0.60;94.30;;;;;;5084047;28;19957;-67
2022/04/03 01:05:56;;;;;;;;;;;0.50;94.50;;;;;;5102330;28;19967;-66
2022/04/03 01:08:24;;;;;;;;;;;0.50;94.70;;;;;;5102256;28;19961;-66
2022/04/03 01:10:50;;;;;;;;;;;0.50;94.60;;;;;;5084342;28;19954;-65
2022/04/03 01:13:16;;;;;;;;;;;0.50;94.60;;;;;;5084144;28;19908;-66
2022/04/03 01:15:41;;;;;;;;;;;0.50;94.50;;;;;;5102232;28;20026;-66
2022/04/03 01:18:07;;;;;;;;;;;0.50;94.50;;;;;;5101932;28;19985;-67
2022/04/03 01:20:35;;;;;;;;;;;0.50;94.60;;;;;;5102215;28;20341;-66
2022/04/03 01:23:00;;;;;;;;;;;0.50;94.60;;;;;;5103168;28;19912;-65
2022/04/03 01:25:26;;;;;;;;;;;0.50;94.40;;;;;;5106008;28;19915;-67
2022/04/03 01:27:52;;;;;;;;;;;0.60;94.50;;;;;;5107048;28;19922;-67
2022/04/03 01:30:17;;;;;;;;;;;0.60;94.50;;;;;;5126344;28;19961;-66
2022/04/03 01:32:43;;;;;;;;;;;0.60;94.60;;;;;;5126011;28;19907;-66
2022/04/03 01:35:09;;;;;;;;;;;0.60;94.50;;;;;;5126273;28;19908;-66
2022/04/03 01:37:35;;;;;;;;;;;0.60;94.30;;;;;;5125955;28;19944;-65
2022/04/03 01:40:02;;;;;;;;;;;0.60;94.20;;;;;;5126197;28;20106;-66
2022/04/03 01:42:28;;;;;;;;;;;0.60;94.30;;;;;;5125707;28;20100;-65
2022/04/03 01:44:54;;;;;;;;;;;0.60;94.00;;;;;;5126080;28;20017;-66
2022/04/03 01:47:19;;;;;;;;;;;0.70;93.90;;;;;;5124149;28;19957;-65
2022/04/03 01:49:45;;;;;;;;;;;0.70;93.40;;;;;;5090941;28;19919;-65
2022/04/03 01:52:11;;;;;;;;;;;0.70;93.50;;;;;;5114070;28;19908;-66
2022/04/03 01:54:36;;;;;;;;;;;0.70;93.30;;;;;;5105427;28;19989;-65
2022/04/03 01:57:02;;;;;;;;;;;0.70;93.20;;;;;;5105316;28;19908;-65
2022/04/03 01:59:28;;;;;;;;;;;0.70;93.10;;;;;;5105526;28;20167;-65
2022/04/03 02:01:53;;;;;;;;;;;0.80;93.00;;;;;;5104763;28;19908;-66
2022/04/03 02:04:19;;;;;;;;;;;0.80;93.10;;;;;;5105126;28;19912;-65
2022/04/03 02:06:45;;;;;;;;;;;0.80;93.10;;;;;;5105032;28;19987;-66
2022/04/03 02:09:10;;;;;;;;;;;0.70;93.00;;;;;;5087087;28;19944;-66
2022/04/03 02:11:37;;;;;;;;;;;0.70;93.10;;;;;;5104751;28;19908;-66
2022/04/03 02:14:02;;;;;;;;;;;0.70;93.00;;;;;;5105141;28;19939;-66
2022/04/03 02:16:28;;;;;;;;;;;0.70;93.10;;;;;;5104637;28;19946;-65
2022/04/03 02:18:54;;;;;;;;;;;0.70;93.10;;;;;;5104875;28;19915;-66
2022/04/03 02:21:19;;;;;;;;;;;0.70;93.00;;;;;;5104496;28;19916;-65
2022/04/03 02:23:45;;;;;;;;;;;0.70;92.90;;;;;;5104869;28;19920;-65
2022/04/03 02:26:11;;;;;;;;;;;0.70;93.10;;;;;;5104817;28;19911;-66
2022/04/03 02:28:39;;;;;;;;;;;0.70;92.90;;;;;;5104866;28;19908;-66
2022/04/03 02:31:04;;;;;;;;;;;0.60;92.90;;;;;;5104645;28;19908;-65
2022/04/03 02:33:30;;;;;;;;;;;0.60;93.20;;;;;;5119216;28;19953;-65
2022/04/03 02:35:56;;;;;;;;;;;0.60;93.30;;;;;;5125113;28;20230;-65
2022/04/03 02:38:22;;;;;;;;;;;0.50;93.30;;;;;;5124940;28;20144;-65
2022/04/03 02:40:48;;;;;;;;;;;0.50;93.40;;;;;;5124734;28;19931;-65
2022/04/03 02:43:14;;;;;;;;;;;0.40;93.50;;;;;;5124816;28;20012;-65
2022/04/03 02:45:39;;;;;;;;;;;0.40;93.60;;;;;;5124893;28;19926;-65
2022/04/03 02:48:06;;;;;;;;;;;0.40;93.80;;;;;;5124443;28;19920;-65
2022/04/03 02:50:32;;;;;;;;;;;0.40;93.90;;;;;;5124692;28;19908;-65
2022/04/03 02:52:58;;;;;;;;;;;0.30;94.00;;;;;;5106646;28;19971;-65
2022/04/03 02:55:24;;;;;;;;;;;0.30;94.20;;;;;;5104168;28;20199;-65
2022/04/03 02:57:52;;;;;;;;;;;0.20;94.50;;;;;;5104262;28;19916;-65
2022/04/03 03:00:17;;;;;;;;;;;0.10;94.80;;;;;;5104138;28;19908;-66
2022/04/03 03:02:44;;;;;;;;;;;0.10;94.90;;;;;;5085757;28;19919;-65
2022/04/03 03:05:09;;;;;;;;;;;0.10;95.00;;;;;;5114957;28;19914;-65
2022/04/03 03:07:37;;;;;;;;;;;0.00;95.10;;;;;;5124399;28;19983;-65
2022/04/03 03:10:04;;;;;;;;;;;0.00;95.00;;;;;;5124364;28;19922;-65
2022/04/03 03:12:30;;;;;;;;;;;-0.10;94.90;;;;;;5124296;28;19915;-66
2022/04/03 03:14:56;;;;;;;;;;;-0.10;95.10;;;;;;5106198;28;20161;-65
2022/04/03 03:17:22;;;;;;;;;;;-0.10;95.10;;;;;;5123918;28;19908;-65
2022/04/03 03:19:48;;;;;;;;;;;-0.20;94.90;;;;;;5124235;28;19908;-65
2022/04/03 03:22:13;;;;;;;;;;;-0.20;94.90;;;;;;5111745;28;19946;-65
2022/04/03 03:24:39;;;;;;;;;;;-0.10;94.90;;;;;;5103683;28;19912;-65
2022/04/03 03:27:05;;;;;;;;;;;-0.20;94.80;;;;;;5103756;28;19951;-65
2022/04/03 03:29:31;;;;;;;;;;;-0.10;94.80;;;;;;5103718;28;19912;-65
2022/04/03 03:31:56;;;;;;;;;;;-0.20;94.70;;;;;;5103020;28;19915;-66
2022/04/03 03:34:22;;;;;;;;;;;-0.20;94.80;;;;;;5103537;28;19953;-65
2022/04/03 03:36:48;;;;;;;;;;;-0.20;94.60;;;;;;5103453;28;20112;-65
2022/04/03 03:39:14;;;;;;;;;;;-0.20;94.60;;;;;;5103449;28;19930;-65
2022/04/03 03:41:40;;;;;;;;;;;-0.30;94.70;;;;;;5103168;28;19928;-65
2022/04/03 03:44:10;;;;;;;;;;;-0.30;94.70;;;;;;5103399;28;19998;-65
2022/04/03 03:46:44;;;;;;;;;;;-0.30;94.70;;;;;;5085144;28;20119;-65
2022/04/03 03:49:10;;;;;;;;;;;-0.30;94.70;;;;;;5103171;28;19920;-65
2022/04/03 03:51:36;;;;;;;;;;;-0.30;94.70;;;;;;5102767;28;19931;-65
2022/04/03 03:54:02;;;;;;;;;;;-0.30;94.70;;;;;;5085104;28;19915;-65
2022/04/03 03:56:27;;;;;;;;;;;-0.30;94.70;;;;;;5103037;28;19908;-65
2022/04/03 03:58:53;;;;;;;;;;;-0.30;94.70;;;;;;5084973;28;19908;-65
2022/04/03 04:01:19;;;;;;;;;;;-0.30;94.60;;;;;;5102829;28;20183;-65
2022/04/03 04:03:45;;;;;;;;;;;-0.30;94.60;;;;;;5102548;28;19954;-66
2022/04/03 04:06:11;;;;;;;;;;;-0.40;94.70;;;;;;5102986;28;20009;-65
2022/04/03 04:08:36;;;;;;;;;;;-0.30;94.50;;;;;;5102630;28;19908;-65
2022/04/03 04:11:03;;;;;;;;;;;-0.40;94.50;;;;;;5102619;28;19908;-66
2022/04/03 04:13:28;;;;;;;;;;;-0.40;94.50;;;;;;5103023;28;19908;-67
2022/04/03 04:15:54;;;;;;;;;;;-0.40;94.60;;;;;;5102929;28;19908;-65
2022/04/03 04:18:20;;;;;;;;;;;-0.40;94.60;;;;;;5102714;28;19916;-65
2022/04/03 04:20:46;;;;;;;;;;;-0.40;94.90;;;;;;5102800;28;20309;-65
2022/04/03 04:23:12;;;;;;;;;;;-0.50;94.70;;;;;;5102660;28;20206;-65
2022/04/03 04:25:37;;;;;;;;;;;-0.50;94.60;;;;;;5102741;28;19916;-66
2022/04/03 04:28:03;;;;;;;;;;;-0.50;94.90;;;;;;5102726;28;19943;-66
2022/04/03 04:30:29;;;;;;;;;;;-0.50;94.60;;;;;;5116824;28;19908;-66
2022/04/03 04:32:54;;;;;;;;;;;-0.50;94.70;;;;;;5122556;28;19923;-66
2022/04/03 04:35:20;;;;;;;;;;;-0.60;94.80;;;;;;5122958;28;19915;-66
2022/04/03 04:37:46;;;;;;;;;;;-0.60;94.70;;;;;;5122824;28;20196;-65
2022/04/03 04:40:12;;;;;;;;;;;-0.60;94.60;;;;;;5122972;28;20022;-66
2022/04/03 04:42:38;;;;;;;;;;;-0.60;94.70;;;;;;5122611;28;19943;-66
2022/04/03 04:45:04;;;;;;;;;;;-0.60;94.80;;;;;;5122993;28;19915;-66
2022/04/03 04:47:34;;;;;;;;;;;-0.60;94.80;;;;;;5122521;28;19987;-66
2022/04/03 04:50:00;;;;;;;;;;;-0.70;94.90;;;;;;5122917;28;19938;-66
2022/04/03 04:52:26;;;;;;;;;;;-0.70;94.90;;;;;;5108402;28;20207;-66
2022/04/03 04:54:51;;;;;;;;;;;-0.70;95.00;;;;;;5083515;28;19982;-65
2022/04/03 04:57:17;;;;;;;;;;;-0.70;94.90;;;;;;5103076;28;20141;-64
2022/04/03 04:59:43;;;;;;;;;;;-0.70;94.80;;;;;;5105563;28;19914;-65
2022/04/03 05:02:08;;;;;;;;;;;-0.80;94.90;;;;;;5104753;28;19983;-66
2022/04/03 05:04:34;;;;;;;;;;;-0.80;94.50;;;;;;5095623;28;19908;-66
2022/04/03 05:07:00;;;;;;;;;;;-0.80;94.70;;;;;;5095843;28;19988;-66
2022/04/03 05:09:26;;;;;;;;;;;-0.80;94.80;;;;;;5094086;28;19909;-65
2022/04/03 05:11:51;;;;;;;;;;;-0.80;94.60;;;;;;5095714;28;20331;-65
2022/04/03 05:14:17;;;;;;;;;;;-0.70;94.50;;;;;;5095283;28;19954;-65
2022/04/03 05:16:43;;;;;;;;;;;-0.70;94.40;;;;;;5080172;28;19912;-66
2022/04/03 05:19:11;;;;;;;;;;;-0.70;94.40;;;;;;5067976;28;20199;-65
2022/04/03 05:21:36;;;;;;;;;;;-0.70;94.40;;;;;;5092389;28;19915;-65
2022/04/03 05:24:02;;;;;;;;;;;-0.70;94.50;;;;;;5106045;28;19912;-65
2022/04/03 05:26:28;;;;;;;;;;;-0.70;94.60;;;;;;5106176;28;19915;-65
2022/04/03 05:28:54;;;;;;;;;;;-0.70;94.50;;;;;;5106058;28;20227;-65
2022/04/03 05:31:19;;;;;;;;;;;-0.70;94.50;;;;;;5105821;28;19916;-66
2022/04/03 05:33:45;;;;;;;;;;;-0.80;94.60;;;;;;5105564;28;20283;-65
2022/04/03 05:36:11;;;;;;;;;;;-0.70;94.70;;;;;;5105956;28;19908;-64
2022/04/03 05:38:37;;;;;;;;;;;-0.70;94.70;;;;;;5105841;28;19908;-64
2022/04/03 05:41:02;;;;;;;;;;;-0.70;94.50;;;;;;5105226;28;19908;-64
2022/04/03 05:43:28;;;;;;;;;;;-0.70;94.50;;;;;;5105624;28;19912;-64
2022/04/03 05:45:54;;;;;;;;;;;-0.70;94.40;;;;;;5105752;28;19908;-65
2022/04/03 05:48:20;;;;;;;;;;;-0.60;94.40;;;;;;5105361;28;19936;-64
2022/04/03 05:50:46;;;;;;;;;;;-0.60;94.30;;;;;;5105393;28;19982;-64
2022/04/03 05:53:12;;;;;;;;;;;-0.60;94.20;;;;;;5105507;28;20250;-65
2022/04/03 05:55:38;;;;;;;;;;;-0.60;94.10;;;;;;5105600;28;19931;-64
2022/04/03 05:58:03;;;;;;;;;;;-0.50;93.90;;;;;;5105413;28;19912;-64
2022/04/03 06:00:29;;;;;;;;;;;-0.40;93.90;;;;;;5105481;28;19916;-64
2022/04/03 06:02:56;;;;;;;;;;;-0.30;93.80;;;;;;5105095;28;20181;-64
2022/04/03 06:05:29;;;;;;;;;;;-0.30;93.50;;;;;;5105343;28;20111;-64
2022/04/03 06:07:55;;;;;;;;;;;-0.10;93.00;;;;;;5094968;28;20010;-64
2022/04/03 06:10:21;;;;;;;;;;;0.00;92.80;;;;;;5104825;28;19912;-65
2022/04/03 06:13:06;;;;;;;;;;;0.00;92.60;;;;;;5104790;28;19979;-64
2022/04/03 06:15:33;;;;;;;;;;;0.00;92.40;;;;;;5103543;28;19961;-65
2022/04/03 06:17:59;;;;;;;;;;;0.00;92.50;;;;;;5104141;28;19912;-65
2022/04/03 06:20:25;;;;;;;;;;;0.00;92.40;;;;;;5103119;28;20318;-64
2022/04/03 06:22:51;;;;;;;;;;;0.20;92.00;;;;;;5103089;28;19945;-66
2022/04/03 06:25:17;;;;;;;;;;;0.20;91.70;;;;;;5054002;28;19912;-66
2022/04/03 06:27:43;;;;;;;;;;;0.20;91.80;;;;;;5087344;28;19915;-65
2022/04/03 06:30:09;;;;;;;;;;;0.40;91.20;;;;;;5105159;28;19908;-66
2022/04/03 06:32:35;;;;;;;;;;;0.40;91.10;;;;;;5105183;28;19915;-65
2022/04/03 06:35:00;;;;;;;;;;;0.40;91.30;;;;;;5104799;28;19916;-65
2022/04/03 06:37:26;;;;;;;;;;;0.40;90.80;;;;;;5104545;28;19943;-65
2022/04/03 06:39:52;;;;;;;;;;;0.40;91.10;;;;;;5104332;28;19919;-66
2022/04/03 06:42:17;;;;;;;;;;;0.40;90.80;;;;;;5104218;28;19912;-65
2022/04/03 06:44:43;;;;;;;;;;;0.40;90.90;;;;;;5104288;28;19916;-66
2022/04/03 06:47:09;;;;;;;;;;;0.50;90.20;;;;;;5103788;28;19926;-65
2022/04/03 06:49:35;;;;;;;;;;;0.60;90.20;;;;;;5101664;28;19916;-65
2022/04/03 06:52:01;;;;;;;;;;;0.60;90.20;;;;;;5100155;28;19912;-65
2022/04/03 06:54:27;;;;;;;;;;;0.70;90.10;;;;;;5101138;28;19919;-65
2022/04/03 06:56:53;;;;;;;;;;;0.70;89.10;;;;;;5104050;28;19978;-66
2022/04/03 06:59:18;;;;;;;;;;;0.60;89.50;;;;;;5094413;28;19958;-66
2022/04/03 07:01:44;;;;;;;;;;;0.70;89.20;;;;;;5087629;28;19920;-66
2022/04/03 07:04:10;;;;;;;;;;;0.80;87.70;;;;;;5088600;28;19925;-66
2022/04/03 07:06:35;;;;;;;;;;;0.80;87.80;;;;;;5092968;28;19923;-66
2022/04/03 07:09:01;;;;;;;;;;;1.00;87.80;;;;;;5101280;28;19908;-66
2022/04/03 07:11:27;;;;;;;;;;;1.10;87.30;;;;;;5103642;28;19955;-65
2022/04/03 07:13:52;;;;;;;;;;;1.00;87.00;;;;;;5104140;28;19983;-66
2022/04/03 07:16:18;;;;;;;;;;;1.10;85.20;;;;;;5103391;28;20115;-66
2022/04/03 07:18:44;;;;;;;;;;;1.20;83.80;;;;;;5098740;28;19912;-65
2022/04/03 07:21:09;;;;;;;;;;;1.30;82.70;;;;;;5102485;28;19952;-65
2022/04/03 07:23:35;;;;;;;;;;;1.60;81.90;;;;;;5103651;28;19920;-66
2022/04/03 07:26:01;;;;;;;;;;;1.40;82.50;;;;;;5103732;28;19911;-65
2022/04/03 07:28:26;;;;;;;;;;;1.50;82.00;;;;;;5103782;28;19908;-66
2022/04/03 07:30:52;;;;;;;;;;;1.50;80.70;;;;;;5103381;28;19912;-65
2022/04/03 07:33:21;;;;;;;;;;;1.60;79.70;;;;;;5101663;28;19916;-72
2022/04/03 07:35:47;;;;;;;;;;;1.60;80.20;;;;;;5095351;28;19908;-67
2022/04/03 07:38:14;;;;;;;;;;;1.60;78.80;;;;;;5101373;28;19908;-65
2022/04/03 07:40:40;;;;;;;;;;;1.80;78.50;;;;;;5103250;28;19927;-65
2022/04/03 07:43:06;;;;;;;;;;;1.70;77.30;;;;;;5103452;28;19912;-64
2022/04/03 07:45:32;;;;;;;;;;;1.90;76.80;;;;;;5103278;28;19912;-67
2022/04/03 07:47:58;;;;;;;;;;;1.80;78.30;;;;;;5102733;28;19920;-66
2022/04/03 07:50:25;;;;;;;;;;;1.70;76.50;;;;;;5117422;28;19943;-66
2022/04/03 07:52:51;;;;;;;;;;;1.60;76.30;;;;;;5084686;28;20207;-67
2022/04/03 07:55:17;;;;;;;;;;;1.80;76.10;;;;;;5087329;28;19908;-65
2022/04/03 07:57:43;;;;;;;;;;;1.80;75.30;;;;;;5102697;28;20250;-67
2022/04/03 08:00:10;;;;;;;;;;;1.60;76.30;;;;;;5104102;28;19915;-66
2022/04/03 08:02:39;;;;;;;;;;;1.60;76.70;;;;;;5102331;28;20203;-65
2022/04/03 08:05:06;;;;;;;;;;;1.90;76.00;;;;;;5102773;28;20203;-64
2022/04/03 08:07:35;;;;;;;;;;;1.90;75.60;;;;;;5102544;28;19908;-65
2022/04/03 08:10:01;;;;;;;;;;;2.00;75.80;;;;;;5102768;28;19946;-66
2022/04/03 08:12:27;;;;;;;;;;;2.30;74.20;;;;;;5102338;28;19915;-66
2022/04/03 08:14:53;;;;;;;;;;;2.40;73.80;;;;;;5102693;28;19975;-66
2022/04/03 08:17:18;;;;;;;;;;;2.80;72.80;;;;;;5102265;28;19915;-66
2022/04/03 08:19:44;;;;;;;;;;;3.10;72.70;;;;;;5100319;28;20225;-65
2022/04/03 08:22:10;;;;;;;;;;;3.20;69.70;;;;;;5110054;28;19923;-67
2022/04/03 08:24:35;;;;;;;;;;;3.40;69.30;;;;;;5122529;28;19919;-67
2022/04/03 08:27:01;;;;;;;;;;;3.60;66.70;;;;;;5122721;28;19916;-67
2022/04/03 08:29:27;;;;;;;;;;;3.40;68.90;;;;;;5122826;28;19918;-70
2022/04/03 08:31:52;;;;;;;;;;;3.40;68.00;;;;;;5122265;28;19978;-71
2022/04/03 08:34:18;;;;;;;;;;;3.40;67.40;;;;;;5122591;28;19914;-68
2022/04/03 08:36:44;;;;;;;;;;;3.40;68.40;;;;;;5122693;28;19914;-66
2022/04/03 08:39:09;;;;;;;;;;;3.30;66.20;;;;;;5122719;28;19907;-68
2022/04/03 08:41:35;;;;;;;;;;;3.00;66.40;;;;;;5119946;28;19916;-66
2022/04/03 08:44:01;;;;;;;;;;;3.30;65.40;;;;;;5088101;28;20230;-68
2022/04/03 08:46:27;;;;;;;;;;;3.00;64.30;;;;;;5064342;28;19957;-67
2022/04/03 08:48:52;;;;;;;;;;;3.00;66.50;;;;;;5062707;28;19919;-65
2022/04/03 08:51:18;;;;;;;;;;;3.00;65.40;;;;;;5066778;28;20141;-66
2022/04/03 08:53:44;;;;;;;;;;;3.00;65.80;;;;;;5102542;28;19908;-65
2022/04/03 08:56:10;;;;;;;;;;;3.20;66.10;;;;;;5116691;28;20272;-65
2022/04/03 08:58:36;;;;;;;;;;;3.20;66.60;;;;;;5122521;28;19937;-66
2022/04/03 09:01:02;;;;;;;;;;;3.30;66.80;;;;;;5122099;28;19915;-66
2022/04/03 09:03:28;;;;;;;;;;;3.10;64.90;;;;;;5121456;28;19949;-66
2022/04/03 09:06:12;;;;;;;;;;;3.10;65.90;;;;;;5122374;28;19908;-66
2022/04/03 09:08:37;;;;;;;;;;;3.20;67.80;;;;;;5099529;28;20219;-66
2022/04/03 09:11:04;;;;;;;;;;;3.40;65.70;;;;;;5101400;28;19916;-66
2022/04/03 09:13:31;;;;;;;;;;;3.50;64.10;;;;;;5101783;28;20182;-67
2022/04/03 09:15:57;;;;;;;;;;;3.50;65.00;;;;;;5100508;28;19923;-65
2022/04/03 09:18:23;;;;;;;;;;;3.70;66.00;;;;;;5101221;28;20250;-65
2022/04/03 09:20:48;;;;;;;;;;;3.60;64.00;;;;;;5095115;28;19909;-65
2022/04/03 09:23:16;;;;;;;;;;;3.80;64.10;;;;;;5063327;28;19916;-65
2022/04/03 09:25:43;;;;;;;;;;;4.10;62.60;;;;;;5084206;28;19908;-65
2022/04/03 09:28:11;;;;;;;;;;;4.10;63.20;;;;;;5101695;28;19979;-65
2022/04/03 09:30:44;;;;;;;;;;;4.40;62.30;;;;;;5121998;28;20017;-65
2022/04/03 09:33:11;;;;;;;;;;;4.70;59.80;;;;;;5122332;28;19946;-66
2022/04/03 09:35:56;;;;;;;;;;;4.60;58.10;;;;;;5113956;28;20208;-65
2022/04/03 09:38:21;;;;;;;;;;;4.70;58.70;;;;;;5109546;28;19908;-65
2022/04/03 09:40:51;;;;;;;;;;;4.60;57.30;;;;;;5101455;28;19908;-65
2022/04/03 09:43:24;;;;;;;;;;;4.70;57.40;;;;;;5080204;28;20150;-65
2022/04/03 09:45:51;;;;;;;;;;;4.60;56.40;;;;;;5105474;28;19914;-66
2022/04/03 09:48:29;;;;;;;;;;;4.60;57.70;;;;;;5105039;28;19919;-65
2022/04/03 09:51:00;;;;;;;;;;;4.90;57.60;;;;;;5104279;28;19923;-66
2022/04/03 09:53:29;;;;;;;;;;;4.80;55.00;;;;;;5105233;28;19956;-65
2022/04/03 09:55:55;;;;;;;;;;;4.70;55.30;;;;;;5105341;28;19915;-65
2022/04/03 09:58:22;;;;;;;;;;;4.60;54.40;;;;;;5105254;28;20148;-65
2022/04/03 10:00:47;;;;;;;;;;;5.00;51.80;;;;;;5100987;28;19955;-65
2022/04/03 10:03:13;;;;;;;;;;;5.00;51.40;;;;;;5103666;28;19959;-65
2022/04/03 10:05:40;;;;;;;;;;;4.80;51.40;;;;;;5104911;28;19911;-65
2022/04/03 10:08:06;;;;;;;;;;;4.90;51.10;;;;;;5104786;28;19919;-65
2022/04/03 10:10:33;;;;;;;;;;;4.90;51.60;;;;;;5104795;28;20135;-64
2022/04/03 10:12:59;;;;;;;;;;;4.90;51.30;;;;;;5099823;28;20173;-64
2022/04/03 10:15:25;;;;;;;;;;;5.20;50.60;;;;;;5099456;28;19920;-65
2022/04/03 10:17:51;;;;;;;;;;;5.50;52.70;;;;;;5102162;28;19971;-65
2022/04/03 10:20:17;;;;;;;;;;;5.90;53.00;;;;;;5091075;28;19911;-66
2022/04/03 10:22:48;;;;;;;;;;;6.10;54.60;;;;;;5100615;28;20036;-65
2022/04/03 10:25:18;;;;;;;;;;;6.00;47.70;;;;;;5070620;28;20235;-65
2022/04/03 10:27:43;;;;;;;;;;;6.10;48.30;;;;;;5084856;28;19954;-65
2022/04/03 10:30:10;;;;;;;;;;;5.90;47.20;;;;;;5090666;28;19912;-65
2022/04/03 10:32:36;;;;;;;;;;;6.00;47.80;;;;;;5103991;28;19923;-66
2022/04/03 10:35:03;;;;;;;;;;;6.00;47.10;;;;;;5098221;28;19912;-65
2022/04/03 10:37:39;;;;;;;;;;;5.80;46.40;;;;;;5103534;28;19912;-65
2022/04/03 10:40:16;;;;;;;;;;;5.80;46.30;;;;;;5103981;28;20194;-65
2022/04/03 10:43:02;;;;;;;;;;;6.00;47.80;;;;;;5090792;28;19961;-69
2022/04/03 10:45:32;;;;;;;;;;;6.10;45.40;;;;;;5092581;28;19999;-68
2022/04/03 10:48:26;;;;;;;;;;;6.40;46.00;;;;;;5103443;28;19918;-67
2022/04/03 10:50:56;;;;;;;;;;;6.50;46.80;;;;;;5078992;28;19931;-69
2022/04/03 10:53:31;;;;;;;;;;;6.70;43.90;;;;;;5103612;28;20100;-69
2022/04/03 10:55:58;;;;;;;;;;;6.60;44.20;;;;;;5103617;28;19912;-69
2022/04/03 10:58:23;;;;;;;;;;;6.60;44.10;;;;;;5105408;28;19916;-69
2022/04/03 11:00:49;;;;;;;;;;;6.70;44.40;;;;;;5124132;28;19939;-65
2022/04/03 11:03:18;;;;;;;;;;;7.20;44.50;;;;;;5123718;28;19920;-67
2022/04/03 11:05:46;;;;;;;;;;;7.60;41.50;;;;;;5110700;28;19950;-64
2022/04/03 11:08:12;;;;;;;;;;;8.20;41.70;;;;;;5100266;28;19983;-63
2022/04/03 11:11:07;;;;;;;;;;;8.30;39.60;;;;;;5101405;28;19974;-63
2022/04/03 11:13:35;;;;;;;;;;;8.50;41.60;;;;;;5095133;28;19928;-63
2022/04/03 11:16:09;;;;;;;;;;;7.90;38.00;;;;;;5103544;28;19938;-64
2022/04/03 11:18:37;;;;;;;;;;;7.70;37.30;;;;;;5103162;28;19915;-64
2022/04/03 11:21:06;;;;;;;;;;;7.80;39.90;;;;;;5102215;28;20025;-63
2022/04/03 11:23:44;;;;;;;;;;;8.20;42.00;;;;;;5102554;28;19926;-65
2022/04/03 11:26:10;;;;;;;;;;;8.30;40.50;;;;;;5103347;28;19916;-64
2022/04/03 11:28:36;;;;;;;;;;;8.70;36.40;;;;;;5107320;28;19915;-64
2022/04/03 11:31:02;;;;;;;;;;;8.80;37.40;;;;;;5124398;28;19954;-64
2022/04/03 11:33:28;;;;;;;;;;;9.10;38.40;;;;;;5124662;28;19907;-64
2022/04/03 11:35:54;;;;;;;;;;;9.20;37.10;;;;;;5123395;28;19907;-65
2022/04/03 11:38:20;;;;;;;;;;;9.60;35.10;;;;;;5123181;28;20143;-67
2022/04/03 11:40:47;;;;;;;;;;;9.90;33.90;;;;;;5123031;28;19916;-66
2022/04/03 11:43:17;;;;;;;;;;;10.00;35.40;;;;;;5104498;28;20225;-66
2022/04/03 11:45:50;;;;;;;;;;;10.20;34.60;;;;;;5123221;28;20216;-68
2022/04/03 11:48:20;;;;;;;;;;;9.80;32.70;;;;;;5122912;28;19995;-66
2022/04/03 11:50:48;;;;;;;;;;;9.30;34.50;;;;;;5112892;28;19915;-66
2022/04/03 11:53:13;;;;;;;;;;;9.20;33.20;;;;;;5102508;28;19946;-66
2022/04/03 11:55:39;;;;;;;;;;;9.60;35.50;;;;;;5102575;28;19908;-65
2022/04/03 11:58:05;;;;;;;;;;;10.30;34.40;;;;;;5102698;28;19923;-66
2022/04/03 12:00:31;;;;;;;;;;;11.20;33.60;;;;;;5084608;28;19916;-64
2022/04/03 12:02:57;;;;;;;;;;;12.40;31.60;;;;;;5101985;28;19912;-64
2022/04/03 12:05:23;;;;;;;;;;;14.40;29.70;;;;;;5102740;28;19916;-64
2022/04/03 12:07:52;;;;;;;;;;;15.80;29.10;;;;;;5101969;28;19939;-64
2022/04/03 12:10:27;;;;;;;;;;;16.30;29.50;;;;;;5102469;28;20195;-66
2022/04/03 12:12:54;;;;;;;;;;;17.10;26.00;;;;;;5101846;28;19971;-68
2022/04/03 12:15:21;;;;;;;;;;;17.20;25.50;;;;;;5102551;28;19953;-67
2022/04/03 12:17:53;;;;;;;;;;;17.20;27.20;;;;;;5067600;28;20325;-67
2022/04/03 12:20:19;;;;;;;;;;;15.90;26.50;;;;;;5083027;28;20176;-67
2022/04/03 12:22:50;;;;;;;;;;;15.10;27.50;;;;;;5101692;28;19931;-66
2022/04/03 12:25:16;;;;;;;;;;;13.50;27.90;;;;;;5084892;28;19916;-66
2022/04/03 12:27:42;;;;;;;;;;;12.60;29.20;;;;;;5102350;28;20107;-66
2022/04/03 12:30:09;;;;;;;;;;;11.60;29.40;;;;;;5102215;28;19979;-66
2022/04/03 12:32:36;;;;;;;;;;;11.10;30.00;;;;;;5101433;28;20332;-67
2022/04/03 12:35:05;;;;;;;;;;;11.20;30.60;;;;;;5102175;28;19908;-67
2022/04/03 12:37:34;;;;;;;;;;;12.40;29.20;;;;;;5101969;28;19920;-65
2022/04/03 12:40:00;;;;;;;;;;;14.40;28.70;;;;;;5101384;28;19987;-70
2022/04/03 12:42:26;;;;;;;;;;;17.00;26.20;;;;;;5100979;28;19908;-68
2022/04/03 12:44:58;;;;;;;;;;;18.50;25.20;;;;;;5101696;28;19951;-67
2022/04/03 12:47:27;;;;;;;;;;;18.50;24.50;;;;;;5101551;28;19957;-67
2022/04/03 12:50:05;;;;;;;;;;;20.00;24.40;;;;;;5102052;28;19915;-68
2022/04/03 12:52:50;;;;;;;;;;;23.20;24.10;;;;;;5084934;28;19977;-69
2022/04/03 12:55:25;;;;;;;;;;;22.40;22.10;;;;;;5102305;28;20196;-67
2022/04/03 13:00:53;;;;;;;;;;;18.10;25.20;;;;;;5102003;28;20233;-66
2022/04/03 13:03:36;;;;;;;;;;;17.10;25.70;;;;;;5102091;28;19928;-65
2022/04/03 13:06:02;;;;;;;;;;;15.60;26.40;;;;;;5102051;28;19953;-66
2022/04/03 13:08:28;;;;;;;;;;;14.30;26.80;;;;;;5102131;28;19912;-64
2022/04/03 13:10:58;;;;;;;;;;;13.20;27.50;;;;;;5083846;28;19908;-63
2022/04/03 13:13:27;;;;;;;;;;;12.80;28.70;;;;;;5102163;28;19908;-64
2022/04/03 13:15:53;;;;;;;;;;;13.20;28.60;;;;;;5102971;28;19979;-64
2022/04/03 13:18:20;;;;;;;;;;;14.30;27.30;;;;;;5122259;28;19952;-64
2022/04/03 13:20:53;;;;;;;;;;;13.80;28.00;;;;;;5120749;28;19916;-64
2022/04/03 13:23:20;;;;;;;;;;;13.90;29.00;;;;;;5105683;28;19985;-64
2022/04/03 13:25:46;;;;;;;;;;;17.70;27.00;;;;;;5106054;28;19908;-64
2022/04/03 13:28:16;;;;;;;;;;;19.30;24.00;;;;;;5105740;28;19960;-65
2022/04/03 13:30:42;;;;;;;;;;;19.10;24.20;;;;;;5105776;28;19945;-64
2022/04/03 13:33:08;;;;;;;;;;;17.60;24.30;;;;;;5105588;28;19916;-69
2022/04/03 13:35:37;;;;;;;;;;;15.60;26.30;;;;;;5105518;28;20032;-69
2022/04/03 13:38:10;;;;;;;;;;;14.80;28.00;;;;;;5105501;28;19908;-67
2022/04/03 13:40:36;;;;;;;;;;;14.10;28.70;;;;;;5087248;28;19992;-66
2022/04/03 13:43:09;;;;;;;;;;;12.80;29.00;;;;;;5105326;28;19912;-67
2022/04/03 13:45:58;;;;;;;;;;;11.60;29.80;;;;;;5104165;28;19942;-66
2022/04/03 13:48:24;;;;;;;;;;;11.90;29.90;;;;;;5104026;28;19912;-66
2022/04/03 13:50:53;;;;;;;;;;;12.00;29.20;;;;;;5105557;28;20179;-68
2022/04/03 13:53:20;;;;;;;;;;;11.70;30.90;;;;;;5115715;28;19914;-68
2022/04/03 13:55:46;;;;;;;;;;;14.50;29.70;;;;;;5105293;28;19916;-66
2022/04/03 13:58:11;;;;;;;;;;;18.00;26.90;;;;;;5105535;28;19953;-66
2022/04/03 14:00:37;;;;;;;;;;;17.70;25.50;;;;;;5104878;28;19912;-67
2022/04/03 14:03:03;;;;;;;;;;;18.50;25.10;;;;;;5104846;28;19919;-68
2022/04/03 14:05:29;;;;;;;;;;;20.00;23.60;;;;;;5105251;28;19916;-66
2022/04/03 14:07:54;;;;;;;;;;;18.40;23.90;;;;;;5103234;28;19919;-66
2022/04/03 14:10:20;;;;;;;;;;;16.90;24.70;;;;;;5100645;28;19965;-66
2022/04/03 14:12:46;;;;;;;;;;;17.20;25.10;;;;;;5104398;28;19908;-65
2022/04/03 14:15:11;;;;;;;;;;;15.70;26.10;;;;;;5104883;28;19908;-64
2022/04/03 14:17:37;;;;;;;;;;;14.30;26.70;;;;;;5104899;28;19940;-65
2022/04/03 14:20:04;;;;;;;;;;;12.90;27.60;;;;;;5104643;28;19908;-65
2022/04/03 14:22:29;;;;;;;;;;;11.50;28.90;;;;;;5102189;28;19908;-64
2022/04/03 14:24:56;;;;;;;;;;;11.30;30.10;;;;;;5086539;28;19924;-65
2022/04/03 14:27:22;;;;;;;;;;;11.40;30.00;;;;;;5104596;28;19946;-65